sensor_id;sensor_type;location;lat;lon;timestamp;P1;durP1;ratioP1;P2;durP2;ratioP2
78903;SDS011;68291;49.602;8.722;2023-05-10T00:02:43;2.10;;;1.90;;
78903;SDS011;68291;49.602;8.722;2023-05-10T00:05:41;3.90;;;2.20;;
78903;SDS011;68291;49.602;8.722;2023-05-10T00:08:50;2.23;;;2.03;;
78903;SDS011;68291;49.602;8.722;2023-05-10T00:11:45;4.13;;;2.13;;
78903;SDS011;68291;49.602;8.722;2023-05-10T00:14:37;2.60;;;2.40;;
78903;SDS011;68291;49.602;8.722;2023-05-10T00:17:36;2.43;;;2.23;;
78903;SDS011;68291;49.602;8.722;2023-05-10T00:20:26;2.50;;;2.30;;
78903;SDS011;68291;49.602;8.722;2023-05-10T00:23:25;2.97;;;2.20;;
78903;SDS011;68291;49.602;8.722;2023-05-10T00:26:35;2.30;;;2.10;;
78903;SDS011;68291;49.602;8.722;2023-05-10T00:29:48;2.47;;;2.27;;
78903;SDS011;68291;49.602;8.722;2023-05-10T00:32:39;2.80;;;2.10;;
78903;SDS011;68291;49.602;8.722;2023-05-10T00:35:39;2.17;;;1.97;;
78903;SDS011;68291;49.602;8.722;2023-05-10T00:38:29;2.50;;;2.30;;
78903;SDS011;68291;49.602;8.722;2023-05-10T00:41:27;3.27;;;1.90;;
78903;SDS011;68291;49.602;8.722;2023-05-10T00:44:25;1.93;;;1.83;;
78903;SDS011;68291;49.602;8.722;2023-05-10T00:47:29;2.17;;;1.97;;
78903;SDS011;68291;49.602;8.722;2023-05-10T00:50:35;2.77;;;2.00;;
78903;SDS011;68291;49.602;8.722;2023-05-10T00:53:26;2.87;;;2.10;;
78903;SDS011;68291;49.602;8.722;2023-05-10T00:56:16;2.37;;;2.17;;
78903;SDS011;68291;49.602;8.722;2023-05-10T00:59:13;3.87;;;2.00;;
78903;SDS011;68291;49.602;8.722;2023-05-10T01:02:06;2.43;;;2.03;;
78903;SDS011;68291;49.602;8.722;2023-05-10T01:04:59;2.60;;;2.27;;
78903;SDS011;68291;49.602;8.722;2023-05-10T01:07:54;2.90;;;2.40;;
78903;SDS011;68291;49.602;8.722;2023-05-10T01:10:52;2.37;;;2.17;;
78903;SDS011;68291;49.602;8.722;2023-05-10T01:13:43;2.50;;;2.30;;
78903;SDS011;68291;49.602;8.722;2023-05-10T01:16:58;2.47;;;2.27;;
78903;SDS011;68291;49.602;8.722;2023-05-10T01:20:00;3.60;;;2.90;;
78903;SDS011;68291;49.602;8.722;2023-05-10T01:23:03;2.90;;;2.70;;
78903;SDS011;68291;49.602;8.722;2023-05-10T01:26:52;3.27;;;2.57;;
78903;SDS011;68291;49.602;8.722;2023-05-10T01:30:27;2.60;;;2.40;;
78903;SDS011;68291;49.602;8.722;2023-05-10T01:33:50;2.70;;;2.50;;
78903;SDS011;68291;49.602;8.722;2023-05-10T01:37:04;2.90;;;2.60;;
78903;SDS011;68291;49.602;8.722;2023-05-10T01:40:02;3.87;;;2.60;;
78903;SDS011;68291;49.602;8.722;2023-05-10T01:43:04;3.10;;;2.90;;
78903;SDS011;68291;49.602;8.722;2023-05-10T01:46:16;2.80;;;2.60;;
78903;SDS011;68291;49.602;8.722;2023-05-10T01:49:34;3.73;;;2.33;;
78903;SDS011;68291;49.602;8.722;2023-05-10T01:52:44;3.03;;;2.77;;
78903;SDS011;68291;49.602;8.722;2023-05-10T01:55:46;3.27;;;2.70;;
78903;SDS011;68291;49.602;8.722;2023-05-10T01:58:43;3.37;;;3.07;;
78903;SDS011;68291;49.602;8.722;2023-05-10T02:01:41;3.13;;;2.83;;
78903;SDS011;68291;49.602;8.722;2023-05-10T02:05:01;7.80;;;3.50;;
78903;SDS011;68291;49.602;8.722;2023-05-10T02:07:55;3.10;;;2.90;;
78903;SDS011;68291;49.602;8.722;2023-05-10T02:10:57;3.40;;;3.10;;
78903;SDS011;68291;49.602;8.722;2023-05-10T02:13:49;3.20;;;3.00;;
78903;SDS011;68291;49.602;8.722;2023-05-10T02:16:47;4.87;;;2.90;;
78903;SDS011;68291;49.602;8.722;2023-05-10T02:20:05;3.53;;;3.07;;
78903;SDS011;68291;49.602;8.722;2023-05-10T02:22:57;3.00;;;2.70;;
78903;SDS011;68291;49.602;8.722;2023-05-10T02:25:57;3.23;;;2.90;;
78903;SDS011;68291;49.602;8.722;2023-05-10T02:29:12;2.93;;;2.73;;
78903;SDS011;68291;49.602;8.722;2023-05-10T02:32:12;3.93;;;2.90;;
78903;SDS011;68291;49.602;8.722;2023-05-10T02:35:19;4.57;;;2.80;;
78903;SDS011;68291;49.602;8.722;2023-05-10T02:38:32;4.43;;;2.63;;
78903;SDS011;68291;49.602;8.722;2023-05-10T02:41:41;3.00;;;2.80;;
78903;SDS011;68291;49.602;8.722;2023-05-10T02:44:56;2.77;;;2.57;;
78903;SDS011;68291;49.602;8.722;2023-05-10T02:47:54;2.50;;;2.30;;
78903;SDS011;68291;49.602;8.722;2023-05-10T02:51:04;3.70;;;2.73;;
78903;SDS011;68291;49.602;8.722;2023-05-10T02:54:09;5.10;;;2.30;;
78903;SDS011;68291;49.602;8.722;2023-05-10T02:57:27;2.77;;;2.57;;
78903;SDS011;68291;49.602;8.722;2023-05-10T03:00:25;6.37;;;3.00;;
78903;SDS011;68291;49.602;8.722;2023-05-10T03:03:44;4.10;;;2.40;;
78903;SDS011;68291;49.602;8.722;2023-05-10T03:06:50;2.60;;;2.40;;
78903;SDS011;68291;49.602;8.722;2023-05-10T03:09:48;2.70;;;2.50;;
78903;SDS011;68291;49.602;8.722;2023-05-10T03:12:52;2.73;;;2.53;;
78903;SDS011;68291;49.602;8.722;2023-05-10T03:16:03;6.17;;;2.47;;
78903;SDS011;68291;49.602;8.722;2023-05-10T03:19:12;3.63;;;2.40;;
78903;SDS011;68291;49.602;8.722;2023-05-10T03:22:40;2.50;;;2.30;;
78903;SDS011;68291;49.602;8.722;2023-05-10T03:25:41;3.97;;;2.40;;
78903;SDS011;68291;49.602;8.722;2023-05-10T03:28:41;4.00;;;2.40;;
78903;SDS011;68291;49.602;8.722;2023-05-10T03:31:51;2.57;;;2.37;;
78903;SDS011;68291;49.602;8.722;2023-05-10T03:35:06;2.53;;;2.10;;
78903;SDS011;68291;49.602;8.722;2023-05-10T03:38:15;2.50;;;2.30;;
78903;SDS011;68291;49.602;8.722;2023-05-10T03:41:19;2.87;;;2.17;;
78903;SDS011;68291;49.602;8.722;2023-05-10T03:44:17;2.70;;;2.50;;
78903;SDS011;68291;49.602;8.722;2023-05-10T03:47:25;2.80;;;2.60;;
78903;SDS011;68291;49.602;8.722;2023-05-10T03:50:18;3.17;;;2.53;;
78903;SDS011;68291;49.602;8.722;2023-05-10T03:53:47;2.87;;;2.57;;
78903;SDS011;68291;49.602;8.722;2023-05-10T03:56:38;3.43;;;2.73;;
78903;SDS011;68291;49.602;8.722;2023-05-10T03:59:29;3.33;;;2.83;;
78903;SDS011;68291;49.602;8.722;2023-05-10T04:02:43;4.13;;;2.80;;
78903;SDS011;68291;49.602;8.722;2023-05-10T04:05:37;2.73;;;2.43;;
78903;SDS011;68291;49.602;8.722;2023-05-10T04:08:50;3.67;;;3.37;;
78903;SDS011;68291;49.602;8.722;2023-05-10T04:11:49;4.03;;;3.07;;
78903;SDS011;68291;49.602;8.722;2023-05-10T04:14:58;3.67;;;3.37;;
78903;SDS011;68291;49.602;8.722;2023-05-10T04:18:07;3.67;;;3.07;;
78903;SDS011;68291;49.602;8.722;2023-05-10T04:21:01;3.33;;;3.00;;
78903;SDS011;68291;49.602;8.722;2023-05-10T04:24:06;3.20;;;2.90;;
78903;SDS011;68291;49.602;8.722;2023-05-10T04:27:04;5.17;;;3.20;;
78903;SDS011;68291;49.602;8.722;2023-05-10T04:30:16;4.80;;;3.60;;
78903;SDS011;68291;49.602;8.722;2023-05-10T04:33:29;4.17;;;3.43;;
78903;SDS011;68291;49.602;8.722;2023-05-10T04:36:26;4.00;;;3.00;;
78903;SDS011;68291;49.602;8.722;2023-05-10T04:39:49;3.40;;;3.10;;
78903;SDS011;68291;49.602;8.722;2023-05-10T04:42:46;3.23;;;2.93;;
78903;SDS011;68291;49.602;8.722;2023-05-10T04:45:53;3.27;;;2.97;;
78903;SDS011;68291;49.602;8.722;2023-05-10T04:48:48;4.13;;;3.27;;
78903;SDS011;68291;49.602;8.722;2023-05-10T04:51:38;3.30;;;3.00;;
78903;SDS011;68291;49.602;8.722;2023-05-10T04:54:53;5.43;;;3.07;;
78903;SDS011;68291;49.602;8.722;2023-05-10T04:57:50;4.07;;;2.70;;
78903;SDS011;68291;49.602;8.722;2023-05-10T05:01:04;3.40;;;3.00;;
78903;SDS011;68291;49.602;8.722;2023-05-10T05:03:56;6.30;;;2.97;;
78903;SDS011;68291;49.602;8.722;2023-05-10T05:07:03;4.37;;;2.70;;
78903;SDS011;68291;49.602;8.722;2023-05-10T05:10:08;3.93;;;3.30;;
78903;SDS011;68291;49.602;8.722;2023-05-10T05:13:01;4.40;;;2.80;;
78903;SDS011;68291;49.602;8.722;2023-05-10T05:16:09;4.83;;;2.53;;
78903;SDS011;68291;49.602;8.722;2023-05-10T05:19:07;4.60;;;2.80;;
78903;SDS011;68291;49.602;8.722;2023-05-10T05:21:59;3.80;;;2.60;;
78903;SDS011;68291;49.602;8.722;2023-05-10T05:24:53;3.10;;;2.67;;
78903;SDS011;68291;49.602;8.722;2023-05-10T05:28:01;3.27;;;2.53;;
78903;SDS011;68291;49.602;8.722;2023-05-10T05:31:08;2.60;;;2.40;;
78903;SDS011;68291;49.602;8.722;2023-05-10T05:34:07;3.87;;;2.60;;
78903;SDS011;68291;49.602;8.722;2023-05-10T05:36:57;3.30;;;2.50;;
78903;SDS011;68291;49.602;8.722;2023-05-10T05:39:46;3.80;;;2.43;;
78903;SDS011;68291;49.602;8.722;2023-05-10T05:43:08;2.60;;;2.40;;
78903;SDS011;68291;49.602;8.722;2023-05-10T05:46:03;3.17;;;2.63;;
78903;SDS011;68291;49.602;8.722;2023-05-10T05:49:01;3.70;;;2.63;;
78903;SDS011;68291;49.602;8.722;2023-05-10T05:51:53;2.63;;;2.43;;
78903;SDS011;68291;49.602;8.722;2023-05-10T05:54:51;2.70;;;2.50;;
78903;SDS011;68291;49.602;8.722;2023-05-10T05:57:49;4.63;;;2.27;;
78903;SDS011;68291;49.602;8.722;2023-05-10T06:01:02;2.90;;;2.30;;
78903;SDS011;68291;49.602;8.722;2023-05-10T06:04:01;2.53;;;2.33;;
78903;SDS011;68291;49.602;8.722;2023-05-10T06:07:12;5.13;;;2.50;;
78903;SDS011;68291;49.602;8.722;2023-05-10T06:10:04;3.77;;;2.60;;
78903;SDS011;68291;49.602;8.722;2023-05-10T06:12:55;2.40;;;2.20;;
78903;SDS011;68291;49.602;8.722;2023-05-10T06:16:17;2.93;;;2.40;;
78903;SDS011;68291;49.602;8.722;2023-05-10T06:19:16;5.83;;;2.27;;
78903;SDS011;68291;49.602;8.722;2023-05-10T06:22:35;2.63;;;2.43;;
78903;SDS011;68291;49.602;8.722;2023-05-10T06:25:40;3.00;;;2.70;;
78903;SDS011;68291;49.602;8.722;2023-05-10T06:28:31;2.93;;;2.70;;
78903;SDS011;68291;49.602;8.722;2023-05-10T06:31:25;3.03;;;2.40;;
78903;SDS011;68291;49.602;8.722;2023-05-10T06:34:38;3.40;;;2.87;;
78903;SDS011;68291;49.602;8.722;2023-05-10T06:37:36;4.30;;;3.13;;
78903;SDS011;68291;49.602;8.722;2023-05-10T06:40:25;3.57;;;3.00;;
78903;SDS011;68291;49.602;8.722;2023-05-10T06:43:23;3.10;;;2.80;;
78903;SDS011;68291;49.602;8.722;2023-05-10T06:46:23;6.37;;;3.23;;
78903;SDS011;68291;49.602;8.722;2023-05-10T06:49:21;3.63;;;3.33;;
78903;SDS011;68291;49.602;8.722;2023-05-10T06:52:19;6.30;;;2.80;;
78903;SDS011;68291;49.602;8.722;2023-05-10T06:55:11;4.50;;;2.90;;
78903;SDS011;68291;49.602;8.722;2023-05-10T06:58:04;5.60;;;3.30;;
78903;SDS011;68291;49.602;8.722;2023-05-10T07:01:14;2.97;;;2.67;;
78903;SDS011;68291;49.602;8.722;2023-05-10T07:04:10;3.33;;;2.87;;
78903;SDS011;68291;49.602;8.722;2023-05-10T07:07:12;3.70;;;2.80;;
78903;SDS011;68291;49.602;8.722;2023-05-10T07:10:13;4.17;;;2.63;;
78903;SDS011;68291;49.602;8.722;2023-05-10T07:13:17;3.00;;;2.80;;
78903;SDS011;68291;49.602;8.722;2023-05-10T07:16:06;2.80;;;2.60;;
78903;SDS011;68291;49.602;8.722;2023-05-10T07:19:13;5.20;;;2.83;;
78903;SDS011;68291;49.602;8.722;2023-05-10T07:22:02;4.17;;;3.10;;
78903;SDS011;68291;49.602;8.722;2023-05-10T07:25:01;3.40;;;2.73;;
78903;SDS011;68291;49.602;8.722;2023-05-10T07:27:53;4.13;;;2.90;;
78903;SDS011;68291;49.602;8.722;2023-05-10T07:30:45;6.00;;;3.13;;
78903;SDS011;68291;49.602;8.722;2023-05-10T07:33:34;3.50;;;3.20;;
78903;SDS011;68291;49.602;8.722;2023-05-10T07:36:32;3.30;;;3.00;;
78903;SDS011;68291;49.602;8.722;2023-05-10T07:39:29;4.07;;;3.00;;
78903;SDS011;68291;49.602;8.722;2023-05-10T07:42:28;4.93;;;3.03;;
78903;SDS011;68291;49.602;8.722;2023-05-10T07:45:17;5.40;;;3.20;;
78903;SDS011;68291;49.602;8.722;2023-05-10T07:48:09;3.13;;;2.63;;
78903;SDS011;68291;49.602;8.722;2023-05-10T07:51:12;3.20;;;2.90;;
78903;SDS011;68291;49.602;8.722;2023-05-10T07:54:06;3.10;;;2.80;;
78903;SDS011;68291;49.602;8.722;2023-05-10T07:57:01;3.13;;;2.83;;
78903;SDS011;68291;49.602;8.722;2023-05-10T07:59:59;3.07;;;2.77;;
78903;SDS011;68291;49.602;8.722;2023-05-10T08:02:57;2.67;;;2.47;;
78903;SDS011;68291;49.602;8.722;2023-05-10T08:05:48;4.73;;;2.90;;
78903;SDS011;68291;49.602;8.722;2023-05-10T08:08:52;2.80;;;2.60;;
78903;SDS011;68291;49.602;8.722;2023-05-10T08:11:53;2.90;;;2.37;;
78903;SDS011;68291;49.602;8.722;2023-05-10T08:14:44;3.57;;;2.57;;
78903;SDS011;68291;49.602;8.722;2023-05-10T08:17:42;2.60;;;2.40;;
78903;SDS011;68291;49.602;8.722;2023-05-10T08:20:32;3.93;;;2.60;;
78903;SDS011;68291;49.602;8.722;2023-05-10T08:23:40;3.20;;;2.90;;
78903;SDS011;68291;49.602;8.722;2023-05-10T08:27:07;3.77;;;3.03;;
78903;SDS011;68291;49.602;8.722;2023-05-10T08:30:09;3.20;;;2.90;;
78903;SDS011;68291;49.602;8.722;2023-05-10T08:33:05;3.20;;;2.90;;
78903;SDS011;68291;49.602;8.722;2023-05-10T08:35:54;6.63;;;3.00;;
78903;SDS011;68291;49.602;8.722;2023-05-10T08:38:52;3.47;;;3.07;;
78903;SDS011;68291;49.602;8.722;2023-05-10T08:41:41;2.97;;;2.27;;
78903;SDS011;68291;49.602;8.722;2023-05-10T08:47:34;4.37;;;2.60;;
78903;SDS011;68291;49.602;8.722;2023-05-10T08:50:30;3.50;;;2.67;;
78903;SDS011;68291;49.602;8.722;2023-05-10T08:53:29;3.20;;;2.73;;
78903;SDS011;68291;49.602;8.722;2023-05-10T08:56:27;3.10;;;2.60;;
78903;SDS011;68291;49.602;8.722;2023-05-10T08:59:25;3.50;;;2.80;;
78903;SDS011;68291;49.602;8.722;2023-05-10T09:02:48;3.57;;;2.80;;
78903;SDS011;68291;49.602;8.722;2023-05-10T09:05:43;3.30;;;2.57;;
78903;SDS011;68291;49.602;8.722;2023-05-10T09:08:45;2.80;;;2.50;;
78903;SDS011;68291;49.602;8.722;2023-05-10T09:11:35;3.33;;;2.47;;
78903;SDS011;68291;49.602;8.722;2023-05-10T09:14:34;2.60;;;2.40;;
78903;SDS011;68291;49.602;8.722;2023-05-10T09:17:32;2.97;;;2.40;;
78903;SDS011;68291;49.602;8.722;2023-05-10T09:20:45;3.53;;;2.40;;
78903;SDS011;68291;49.602;8.722;2023-05-10T09:23:49;3.80;;;2.40;;
78903;SDS011;68291;49.602;8.722;2023-05-10T09:26:46;2.87;;;2.53;;
78903;SDS011;68291;49.602;8.722;2023-05-10T09:29:54;3.27;;;2.30;;
78903;SDS011;68291;49.602;8.722;2023-05-10T09:32:44;2.53;;;2.23;;
78903;SDS011;68291;49.602;8.722;2023-05-10T09:36:05;2.40;;;2.20;;
78903;SDS011;68291;49.602;8.722;2023-05-10T09:38:57;4.83;;;2.43;;
78903;SDS011;68291;49.602;8.722;2023-05-10T09:41:58;2.83;;;2.20;;
78903;SDS011;68291;49.602;8.722;2023-05-10T09:45:01;3.30;;;1.70;;
78903;SDS011;68291;49.602;8.722;2023-05-10T09:47:58;3.33;;;2.00;;
78903;SDS011;68291;49.602;8.722;2023-05-10T09:50:58;2.83;;;1.90;;
78903;SDS011;68291;49.602;8.722;2023-05-10T09:54:08;2.10;;;1.90;;
78903;SDS011;68291;49.602;8.722;2023-05-10T09:57:12;2.97;;;1.97;;
78903;SDS011;68291;49.602;8.722;2023-05-10T10:00:08;7.33;;;2.30;;
78903;SDS011;68291;49.602;8.722;2023-05-10T10:03:13;4.47;;;3.30;;
78903;SDS011;68291;49.602;8.722;2023-05-10T10:06:25;8.90;;;3.43;;
78903;SDS011;68291;49.602;8.722;2023-05-10T10:09:34;3.30;;;2.80;;
78903;SDS011;68291;49.602;8.722;2023-05-10T10:12:31;4.77;;;3.07;;
78903;SDS011;68291;49.602;8.722;2023-05-10T10:15:46;2.73;;;2.53;;
78903;SDS011;68291;49.602;8.722;2023-05-10T10:18:45;4.03;;;3.67;;
78903;SDS011;68291;49.602;8.722;2023-05-10T10:21:40;5.33;;;3.80;;
78903;SDS011;68291;49.602;8.722;2023-05-10T10:24:35;3.27;;;2.97;;
78903;SDS011;68291;49.602;8.722;2023-05-10T10:27:42;2.77;;;2.43;;
78903;SDS011;68291;49.602;8.722;2023-05-10T10:30:49;3.33;;;2.30;;
78903;SDS011;68291;49.602;8.722;2023-05-10T10:33:54;3.73;;;2.40;;
78903;SDS011;68291;49.602;8.722;2023-05-10T10:37:25;3.77;;;2.33;;
78903;SDS011;68291;49.602;8.722;2023-05-10T10:40:49;4.00;;;2.23;;
78903;SDS011;68291;49.602;8.722;2023-05-10T10:47:22;3.63;;;2.20;;
78903;SDS011;68291;49.602;8.722;2023-05-10T10:50:43;5.50;;;2.37;;
78903;SDS011;68291;49.602;8.722;2023-05-10T10:53:49;2.50;;;2.30;;
78903;SDS011;68291;49.602;8.722;2023-05-10T10:56:41;3.70;;;2.00;;
78903;SDS011;68291;49.602;8.722;2023-05-10T11:00:21;3.77;;;2.50;;
78903;SDS011;68291;49.602;8.722;2023-05-10T11:03:20;5.23;;;2.17;;
78903;SDS011;68291;49.602;8.722;2023-05-10T11:06:23;2.67;;;2.33;;
78903;SDS011;68291;49.602;8.722;2023-05-10T11:09:28;4.27;;;2.17;;
78903;SDS011;68291;49.602;8.722;2023-05-10T11:12:55;3.77;;;2.30;;
78903;SDS011;68291;49.602;8.722;2023-05-10T11:15:51;3.10;;;2.00;;
78903;SDS011;68291;49.602;8.722;2023-05-10T11:18:52;2.90;;;2.20;;
78903;SDS011;68291;49.602;8.722;2023-05-10T11:22:13;2.60;;;2.40;;
78903;SDS011;68291;49.602;8.722;2023-05-10T11:25:33;2.50;;;2.30;;
78903;SDS011;68291;49.602;8.722;2023-05-10T11:28:29;4.13;;;2.30;;
78903;SDS011;68291;49.602;8.722;2023-05-10T11:31:35;3.03;;;2.00;;
78903;SDS011;68291;49.602;8.722;2023-05-10T11:34:34;3.27;;;2.37;;
78903;SDS011;68291;49.602;8.722;2023-05-10T11:37:28;2.80;;;2.17;;
78903;SDS011;68291;49.602;8.722;2023-05-10T11:40:30;2.10;;;1.93;;
78903;SDS011;68291;49.602;8.722;2023-05-10T11:43:31;1.90;;;1.80;;
78903;SDS011;68291;49.602;8.722;2023-05-10T11:46:27;2.63;;;1.80;;
78903;SDS011;68291;49.602;8.722;2023-05-10T11:49:19;1.70;;;1.60;;
78903;SDS011;68291;49.602;8.722;2023-05-10T11:52:18;3.80;;;1.50;;
78903;SDS011;68291;49.602;8.722;2023-05-10T11:55:20;3.33;;;1.80;;
78903;SDS011;68291;49.602;8.722;2023-05-10T11:58:17;2.67;;;1.60;;
78903;SDS011;68291;49.602;8.722;2023-05-10T12:01:16;1.73;;;1.40;;
78903;SDS011;68291;49.602;8.722;2023-05-10T12:04:14;1.50;;;1.40;;
78903;SDS011;68291;49.602;8.722;2023-05-10T12:07:13;2.30;;;1.50;;
78903;SDS011;68291;49.602;8.722;2023-05-10T12:10:11;4.23;;;1.60;;
78903;SDS011;68291;49.602;8.722;2023-05-10T12:13:12;1.63;;;1.30;;
78903;SDS011;68291;49.602;8.722;2023-05-10T12:16:17;2.43;;;1.50;;
78903;SDS011;68291;49.602;8.722;2023-05-10T12:19:18;1.57;;;1.40;;
78903;SDS011;68291;49.602;8.722;2023-05-10T12:22:20;2.50;;;1.63;;
78903;SDS011;68291;49.602;8.722;2023-05-10T12:25:13;2.23;;;1.60;;
78903;SDS011;68291;49.602;8.722;2023-05-10T12:28:11;2.67;;;1.80;;
78903;SDS011;68291;49.602;8.722;2023-05-10T12:31:18;2.47;;;1.40;;
78903;SDS011;68291;49.602;8.722;2023-05-10T12:34:31;1.93;;;1.40;;
78903;SDS011;68291;49.602;8.722;2023-05-10T12:37:27;1.60;;;1.50;;
78903;SDS011;68291;49.602;8.722;2023-05-10T12:40:28;4.20;;;1.70;;
78903;SDS011;68291;49.602;8.722;2023-05-10T12:43:17;2.10;;;1.50;;
78903;SDS011;68291;49.602;8.722;2023-05-10T12:46:16;2.17;;;1.50;;
78903;SDS011;68291;49.602;8.722;2023-05-10T12:49:22;2.57;;;1.40;;
78903;SDS011;68291;49.602;8.722;2023-05-10T12:52:20;2.77;;;1.30;;
78903;SDS011;68291;49.602;8.722;2023-05-10T12:55:10;2.43;;;1.40;;
78903;SDS011;68291;49.602;8.722;2023-05-10T12:58:19;2.87;;;1.30;;
78903;SDS011;68291;49.602;8.722;2023-05-10T13:01:35;4.67;;;1.20;;
78903;SDS011;68291;49.602;8.722;2023-05-10T13:04:24;4.57;;;1.50;;
78903;SDS011;68291;49.602;8.722;2023-05-10T13:07:22;2.33;;;1.50;;
78903;SDS011;68291;49.602;8.722;2023-05-10T13:10:21;3.13;;;1.37;;
78903;SDS011;68291;49.602;8.722;2023-05-10T13:13:10;3.73;;;1.40;;
78903;SDS011;68291;49.602;8.722;2023-05-10T13:16:40;2.67;;;1.30;;
78903;SDS011;68291;49.602;8.722;2023-05-10T13:19:30;1.27;;;1.17;;
78903;SDS011;68291;49.602;8.722;2023-05-10T13:22:35;2.10;;;1.50;;
78903;SDS011;68291;49.602;8.722;2023-05-10T13:25:25;3.57;;;1.30;;
78903;SDS011;68291;49.602;8.722;2023-05-10T13:28:20;2.20;;;1.30;;
78903;SDS011;68291;49.602;8.722;2023-05-10T13:31:24;2.23;;;1.30;;
78903;SDS011;68291;49.602;8.722;2023-05-10T13:34:30;1.90;;;1.30;;
78903;SDS011;68291;49.602;8.722;2023-05-10T13:37:21;2.13;;;1.30;;
78903;SDS011;68291;49.602;8.722;2023-05-10T13:40:19;2.63;;;1.47;;
78903;SDS011;68291;49.602;8.722;2023-05-10T13:43:17;3.07;;;1.47;;
78903;SDS011;68291;49.602;8.722;2023-05-10T13:46:12;1.93;;;1.40;;
78903;SDS011;68291;49.602;8.722;2023-05-10T13:49:25;2.93;;;1.43;;
78903;SDS011;68291;49.602;8.722;2023-05-10T13:52:18;3.07;;;1.43;;
78903;SDS011;68291;49.602;8.722;2023-05-10T13:55:16;6.80;;;1.73;;
78903;SDS011;68291;49.602;8.722;2023-05-10T13:58:14;8.03;;;1.50;;
78903;SDS011;68291;49.602;8.722;2023-05-10T14:01:03;3.13;;;1.50;;
78903;SDS011;68291;49.602;8.722;2023-05-10T14:03:56;3.63;;;1.40;;
78903;SDS011;68291;49.602;8.722;2023-05-10T14:06:57;2.23;;;1.20;;
78903;SDS011;68291;49.602;8.722;2023-05-10T14:09:45;3.13;;;1.40;;
78903;SDS011;68291;49.602;8.722;2023-05-10T14:12:35;8.53;;;1.60;;
78903;SDS011;68291;49.602;8.722;2023-05-10T14:15:27;3.27;;;1.37;;
78903;SDS011;68291;49.602;8.722;2023-05-10T14:18:18;1.97;;;1.50;;
78903;SDS011;68291;49.602;8.722;2023-05-10T14:21:08;3.17;;;1.23;;
78903;SDS011;68291;49.602;8.722;2023-05-10T14:24:01;1.90;;;1.27;;
78903;SDS011;68291;49.602;8.722;2023-05-10T14:26:55;2.40;;;1.23;;
78903;SDS011;68291;49.602;8.722;2023-05-10T14:29:45;3.03;;;1.40;;
78903;SDS011;68291;49.602;8.722;2023-05-10T14:32:44;2.83;;;1.43;;
78903;SDS011;68291;49.602;8.722;2023-05-10T14:35:38;2.37;;;1.20;;
78903;SDS011;68291;49.602;8.722;2023-05-10T14:38:36;3.20;;;1.20;;
78903;SDS011;68291;49.602;8.722;2023-05-10T14:41:29;1.87;;;1.30;;
78903;SDS011;68291;49.602;8.722;2023-05-10T14:44:19;2.53;;;1.30;;
78903;SDS011;68291;49.602;8.722;2023-05-10T14:47:11;3.83;;;1.30;;
78903;SDS011;68291;49.602;8.722;2023-05-10T14:50:08;3.33;;;1.20;;
78903;SDS011;68291;49.602;8.722;2023-05-10T14:53:22;3.70;;;1.20;;
78903;SDS011;68291;49.602;8.722;2023-05-10T14:56:12;2.37;;;1.23;;
78903;SDS011;68291;49.602;8.722;2023-05-10T14:59:03;3.53;;;1.00;;
78903;SDS011;68291;49.602;8.722;2023-05-10T15:01:57;3.57;;;1.37;;
78903;SDS011;68291;49.602;8.722;2023-05-10T15:04:49;3.00;;;1.10;;
78903;SDS011;68291;49.602;8.722;2023-05-10T15:07:47;2.97;;;1.10;;
78903;SDS011;68291;49.602;8.722;2023-05-10T15:10:49;3.07;;;0.93;;
78903;SDS011;68291;49.602;8.722;2023-05-10T15:13:43;1.00;;;0.90;;
78903;SDS011;68291;49.602;8.722;2023-05-10T15:16:45;1.13;;;1.03;;
78903;SDS011;68291;49.602;8.722;2023-05-10T15:19:35;3.30;;;1.20;;
78903;SDS011;68291;49.602;8.722;2023-05-10T15:22:29;5.87;;;1.27;;
78903;SDS011;68291;49.602;8.722;2023-05-10T15:25:29;2.27;;;1.20;;
78903;SDS011;68291;49.602;8.722;2023-05-10T15:28:28;2.47;;;1.10;;
78903;SDS011;68291;49.602;8.722;2023-05-10T15:31:24;1.60;;;0.87;;
78903;SDS011;68291;49.602;8.722;2023-05-10T15:34:30;1.70;;;1.00;;
78903;SDS011;68291;49.602;8.722;2023-05-10T15:37:27;3.47;;;1.20;;
78903;SDS011;68291;49.602;8.722;2023-05-10T15:40:25;2.63;;;1.17;;
78903;SDS011;68291;49.602;8.722;2023-05-10T15:43:14;4.70;;;1.27;;
78903;SDS011;68291;49.602;8.722;2023-05-10T15:46:09;3.00;;;1.10;;
78903;SDS011;68291;49.602;8.722;2023-05-10T15:49:07;1.87;;;1.00;;
78903;SDS011;68291;49.602;8.722;2023-05-10T15:52:05;2.43;;;1.03;;
78903;SDS011;68291;49.602;8.722;2023-05-10T15:54:56;1.10;;;1.00;;
78903;SDS011;68291;49.602;8.722;2023-05-10T15:57:45;1.43;;;0.90;;
78903;SDS011;68291;49.602;8.722;2023-05-10T16:00:41;1.73;;;1.00;;
78903;SDS011;68291;49.602;8.722;2023-05-10T16:03:33;1.27;;;0.87;;
78903;SDS011;68291;49.602;8.722;2023-05-10T16:06:28;1.37;;;1.10;;
78903;SDS011;68291;49.602;8.722;2023-05-10T16:09:27;1.63;;;1.07;;
78903;SDS011;68291;49.602;8.722;2023-05-10T16:12:15;1.73;;;0.90;;
78903;SDS011;68291;49.602;8.722;2023-05-10T16:15:23;2.73;;;1.00;;
78903;SDS011;68291;49.602;8.722;2023-05-10T16:18:21;2.17;;;1.20;;
78903;SDS011;68291;49.602;8.722;2023-05-10T16:21:11;2.53;;;1.03;;
78903;SDS011;68291;49.602;8.722;2023-05-10T16:24:09;0.80;;;0.80;;
78903;SDS011;68291;49.602;8.722;2023-05-10T16:27:15;1.40;;;1.00;;
78903;SDS011;68291;49.602;8.722;2023-05-10T16:30:18;18.93;;;2.60;;
78903;SDS011;68291;49.602;8.722;2023-05-10T16:33:17;1.20;;;0.90;;
78903;SDS011;68291;49.602;8.722;2023-05-10T16:36:15;0.93;;;0.93;;
78903;SDS011;68291;49.602;8.722;2023-05-10T16:39:13;1.97;;;0.97;;
78903;SDS011;68291;49.602;8.722;2023-05-10T16:42:26;1.63;;;0.90;;
78903;SDS011;68291;49.602;8.722;2023-05-10T16:45:30;1.83;;;0.90;;
78903;SDS011;68291;49.602;8.722;2023-05-10T16:48:30;2.27;;;0.80;;
78903;SDS011;68291;49.602;8.722;2023-05-10T16:51:26;2.93;;;0.90;;
78903;SDS011;68291;49.602;8.722;2023-05-10T16:54:20;0.83;;;0.83;;
78903;SDS011;68291;49.602;8.722;2023-05-10T16:57:33;0.87;;;0.80;;
78903;SDS011;68291;49.602;8.722;2023-05-10T17:00:23;1.30;;;0.90;;
78903;SDS011;68291;49.602;8.722;2023-05-10T17:03:24;3.10;;;0.93;;
78903;SDS011;68291;49.602;8.722;2023-05-10T17:06:14;3.17;;;0.90;;
78903;SDS011;68291;49.602;8.722;2023-05-10T17:09:26;1.60;;;0.93;;
78903;SDS011;68291;49.602;8.722;2023-05-10T17:12:44;2.10;;;0.97;;
78903;SDS011;68291;49.602;8.722;2023-05-10T17:15:44;0.90;;;0.90;;
78903;SDS011;68291;49.602;8.722;2023-05-10T17:18:39;4.20;;;0.97;;
78903;SDS011;68291;49.602;8.722;2023-05-10T17:21:36;2.73;;;0.90;;
78903;SDS011;68291;49.602;8.722;2023-05-10T17:24:27;2.10;;;1.00;;
78903;SDS011;68291;49.602;8.722;2023-05-10T17:27:25;1.07;;;0.97;;
78903;SDS011;68291;49.602;8.722;2023-05-10T17:30:46;2.93;;;1.07;;
78903;SDS011;68291;49.602;8.722;2023-05-10T17:33:43;6.73;;;1.23;;
78903;SDS011;68291;49.602;8.722;2023-05-10T17:36:57;2.67;;;1.00;;
78903;SDS011;68291;49.602;8.722;2023-05-10T17:39:56;1.83;;;0.90;;
78903;SDS011;68291;49.602;8.722;2023-05-10T17:42:54;2.53;;;0.97;;
78903;SDS011;68291;49.602;8.722;2023-05-10T17:46:05;2.30;;;0.80;;
78903;SDS011;68291;49.602;8.722;2023-05-10T17:49:02;3.43;;;1.00;;
78903;SDS011;68291;49.602;8.722;2023-05-10T17:52:16;5.03;;;1.10;;
78903;SDS011;68291;49.602;8.722;2023-05-10T17:55:31;4.13;;;1.00;;
78903;SDS011;68291;49.602;8.722;2023-05-10T17:58:44;5.30;;;1.13;;
78903;SDS011;68291;49.602;8.722;2023-05-10T18:01:51;1.10;;;0.87;;
78903;SDS011;68291;49.602;8.722;2023-05-10T18:04:40;2.63;;;0.90;;
78903;SDS011;68291;49.602;8.722;2023-05-10T18:07:30;4.10;;;1.10;;
78903;SDS011;68291;49.602;8.722;2023-05-10T18:10:27;4.57;;;1.13;;
78903;SDS011;68291;49.602;8.722;2023-05-10T18:13:29;1.67;;;1.20;;
78903;SDS011;68291;49.602;8.722;2023-05-10T18:16:27;3.33;;;1.00;;
78903;SDS011;68291;49.602;8.722;2023-05-10T18:19:26;4.40;;;1.40;;